Corpus Christi Naval Air Station/Truax Field
KNGP : now visible

Airfield :











YOU CAN JOIN US ON...

 
LOGIN :

Register | Disclaimer

   EN    FR    IT 

 









Legend :    VFR   Marginal VFR   IFR   Intensive IFR   Very Intensive IFR
Visi :
Ceiling :
>= 8 km
>= 3000ft
5 to 8 km
1000 to 3000 ft
1500m to 5 km
500 to 1000 ft
800 to 1500m
200 to 500 ft
< 800m
< 200 ft
Symbols :   Thunderstorms  Fog  Heavy snow  Heavy precipitations  Wind > 20 kt






- Airport Elevation : 18 ft


KNGP - Corpus Christi Naval Air Station/Truax Field

CURRENT METAR :
  • 252356Z AUTO 08013KT 10SM CLR 27/21 A2972 RMK AO2 SLP064 T02670211 10283 20267 56012 $

EXPIRED METARs :
  • 252256Z AUTO 08015KT 10SM FEW080 28/22 A2973 RMK AO2 SLP066 T02780217 $
  • 252156Z AUTO 08011KT 10SM CLR 28/23 A2975 RMK AO2 SLP072 T02780228 $

TAF TAF KNGP
Valid from the 25 at 23:00 until the 26 at 23:00 UTC


2523/2623 08015KT 9999 SCT010 SCT140 QNH2966INS
BECMG 2606/2608 13013KT 9999 VCTS SCT010 BKN015CB BKN025 QNH2969INS
TEMPO 2608/2612 VRB30G45KT 1600 +TSRAGR BR BKN006 OVC010CB
FM261300 36015G25KT 9000 -SHRA VCTS BKN008 BKN015CB OVC020 QNH2974INS
TEMPO 2614/2620 VRB15G25KT 6000 -TSRA BR BKN005 OVC015CB
FM262200 04010KT 9999 SCT008 BKN020 BKN050 OVC100 QNH2975INS AUTOMATED SENSOR METWATCH 2523 TIL 2611 T23/2611Z T30/2621Z FN00216
KZHU FIR / North America



MET'MAP, your aeronautical weather chart ! - Copyright ORBIFLY December 2007 - Disclaimer

ORBIFLY MET'MAP TEAM :

Programming & Development : Alexandra Zaïnal
Concept & original design : Baudouin d'Aumeries
Assistance for programming : Marc-Olivier Méhu
Technical & hardware support : Manuel Goepfert

Contact : metmap@orbifly.com




SOURCES & CREDITS :

   NOAA       Earth
Advisory